createdAt,value
2023-04-04T00:01:07.595Z,100954.66
2023-04-04T00:06:11.208Z,100948.12
2023-04-04T00:11:14.931Z,100939.17
2023-04-04T00:16:18.361Z,100934.30
2023-04-04T00:21:21.763Z,100936.45
2023-04-04T00:26:26.962Z,100931.94
2023-04-04T00:31:30.352Z,100927.77
2023-04-04T00:36:33.948Z,100919.39
2023-04-04T00:41:37.981Z,100918.98
2023-04-04T00:46:41.596Z,100917.36
2023-04-04T00:51:45.219Z,100914.85
2023-04-04T00:56:48.822Z,100912.73
2023-04-04T01:01:52.239Z,100905.46
2023-04-04T01:06:56.578Z,100894.76
2023-04-04T01:12:00.626Z,100888.04
2023-04-04T01:17:05.321Z,100884.00
2023-04-04T01:22:10.024Z,100877.03
2023-04-04T01:27:13.908Z,100868.30
2023-04-04T01:32:21.326Z,100865.94
2023-04-04T01:37:51.868Z,100863.65
2023-04-04T01:42:56.421Z,100856.05
2023-04-04T01:47:59.859Z,100857.55
2023-04-04T01:53:03.334Z,100850.13
2023-04-04T01:58:06.952Z,100849.44
2023-04-04T02:03:10.470Z,100850.23
2023-04-04T02:08:15.429Z,100839.33
2023-04-04T02:13:20.263Z,100833.41
2023-04-04T02:18:24.844Z,100831.59
2023-04-04T02:23:28.324Z,100834.98
2023-04-04T02:28:32.034Z,100829.00
2023-04-04T02:33:35.961Z,100822.98
2023-04-04T02:38:39.271Z,100817.54
2023-04-04T02:43:42.893Z,100816.78
2023-04-04T02:48:46.410Z,100816.45
2023-04-04T02:53:49.826Z,100815.02
2023-04-04T02:58:53.283Z,100817.83
2023-04-04T03:03:57.240Z,100816.64
2023-04-04T03:09:01.228Z,100809.71
2023-04-04T03:14:04.602Z,100813.52
2023-04-04T03:19:08.432Z,100811.73
2023-04-04T03:24:12.871Z,100811.92
2023-04-04T03:29:16.699Z,100808.27
2023-04-04T03:34:20.916Z,100802.48
2023-04-04T03:39:28.116Z,100797.86
2023-04-04T03:44:32.557Z,100797.26
2023-04-04T03:49:36.684Z,100798.91
2023-04-04T03:54:42.067Z,100798.15
2023-04-04T03:59:45.558Z,100802.99
2023-04-04T04:04:48.968Z,100800.32
2023-04-04T04:09:52.568Z,100799.64
2023-04-04T04:14:56.612Z,100801.76
2023-04-04T04:20:00.050Z,100805.05
2023-04-04T04:25:04.290Z,100805.23
2023-04-04T04:30:09.173Z,100797.88
2023-04-04T04:35:12.653Z,100799.73
2023-04-04T04:40:16.757Z,100798.36
2023-04-04T04:45:20.174Z,100800.92
2023-04-04T04:50:23.620Z,100798.20
2023-04-04T04:55:27.927Z,100795.80
2023-04-04T05:00:31.544Z,100796.95
2023-04-04T05:05:35.278Z,100798.27
2023-04-04T05:10:38.976Z,100792.85
2023-04-04T05:15:42.694Z,100792.06
2023-04-04T05:20:52.417Z,100791.34
2023-04-04T05:25:55.767Z,100786.27
2023-04-04T05:30:59.100Z,100790.15
2023-04-04T05:36:03.285Z,100793.84
2023-04-04T05:41:06.825Z,100791.23
2023-04-04T05:46:10.365Z,100796.45
2023-04-04T05:51:13.858Z,100795.23
2023-04-04T05:56:18.095Z,100790.50
2023-04-04T06:01:21.510Z,100794.58
2023-04-04T06:06:25.225Z,100794.02
2023-04-04T06:11:28.841Z,100788.85
2023-04-04T06:16:32.526Z,100787.45
2023-04-04T06:21:36.389Z,100787.30
2023-04-04T06:26:39.905Z,100789.66
2023-04-04T06:31:43.355Z,100786.85
2023-04-04T06:36:46.828Z,100788.28
2023-04-04T06:41:50.350Z,100786.04
2023-04-04T06:46:54.213Z,100783.40
2023-04-04T06:51:58.937Z,100786.23
2023-04-04T06:57:02.324Z,100780.89
2023-04-04T07:02:06.156Z,100776.84
2023-04-04T07:07:09.662Z,100770.02
2023-04-04T07:12:13.176Z,100763.19
2023-04-04T07:17:24.028Z,100756.49
2023-04-04T07:22:28.401Z,100754.17
2023-04-04T07:27:32.326Z,100752.70
2023-04-04T07:32:36.219Z,100761.96
2023-04-04T07:37:39.769Z,100752.89
2023-04-04T07:42:46.866Z,100755.75
2023-04-04T07:47:51.194Z,100756.87
2023-04-04T07:52:59.015Z,100752.67
2023-04-04T07:58:02.852Z,100748.27
2023-04-04T08:03:07.230Z,100760.15
2023-04-04T08:08:10.685Z,100750.58
2023-04-04T08:13:42.254Z,100740.35
2023-04-04T08:18:45.778Z,100740.48
2023-04-04T08:23:49.285Z,100742.13
2023-04-04T08:28:52.798Z,100742.20
2023-04-04T08:33:56.558Z,100745.84
2023-04-04T08:39:00.135Z,100738.46
2023-04-04T08:44:06.460Z,100739.93
2023-04-04T08:49:12.192Z,100741.90
2023-04-04T08:54:19.638Z,100729.48
2023-04-04T08:59:23.216Z,100722.40
2023-04-04T09:04:27.878Z,100718.91
2023-04-04T09:09:34.559Z,100721.63
2023-04-04T09:14:40.323Z,100727.17
2023-04-04T09:19:43.738Z,100724.42
2023-04-04T09:24:48.693Z,100723.73
2023-04-04T09:29:53.117Z,100727.13
2023-04-04T09:34:56.734Z,100724.35
2023-04-04T09:40:00.246Z,100729.16
2023-04-04T09:45:05.441Z,100725.65
2023-04-04T09:50:09.642Z,100732.95
2023-04-04T09:55:12.965Z,100734.97
2023-04-04T10:00:21.232Z,100723.10
2023-04-04T10:05:25.204Z,100728.08
2023-04-04T10:10:31.689Z,100724.30
2023-04-04T10:15:38.681Z,100726.75
2023-04-04T10:20:43.737Z,100727.95
2023-04-04T10:25:47.664Z,100728.36
2023-04-04T10:31:16.545Z,100722.20
2023-04-04T10:36:31.783Z,100717.20
2023-04-04T10:41:36.614Z,100713.20
2023-04-04T10:46:43.522Z,100710.27
2023-04-04T10:51:55.707Z,100698.80
2023-04-04T10:57:01.041Z,100709.52
2023-04-04T11:02:07.154Z,100710.73
2023-04-04T11:07:16.500Z,100711.73
2023-04-04T11:12:31.735Z,100704.52
2023-04-04T11:17:43.072Z,100714.62
2023-04-04T11:22:46.512Z,100703.67
2023-04-04T11:27:51.898Z,100702.09
2023-04-04T11:33:07.105Z,100714.86
2023-04-04T11:38:17.364Z,100705.12
2023-04-04T11:43:21.160Z,100705.81
2023-04-04T11:48:25.286Z,100697.18
2023-04-04T11:53:32.699Z,100696.26
2023-04-04T11:58:37.341Z,100690.89
2023-04-04T12:03:41.990Z,100678.61
2023-04-04T12:08:45.493Z,100682.10
2023-04-04T12:13:51.518Z,100678.55
2023-04-04T12:18:56.641Z,100676.70
2023-04-04T12:24:00.248Z,100678.73
2023-04-04T12:29:04.061Z,100680.84
2023-04-04T12:34:08.745Z,100677.56
2023-04-04T12:39:12.477Z,100676.30
2023-04-04T12:44:36.414Z,100678.05
2023-04-04T12:49:44.538Z,100662.98
2023-04-04T12:54:56.191Z,100661.61
2023-04-04T13:00:09.629Z,100659.72
2023-04-04T13:05:14.538Z,100651.79
2023-04-04T13:10:20.745Z,100653.61
2023-04-04T13:15:45.123Z,100648.34
2023-04-04T13:20:50.113Z,100638.69
2023-04-04T13:25:53.262Z,100632.42
2023-04-04T13:30:56.968Z,100635.34
2023-04-04T13:36:01.750Z,100641.45
2023-04-04T13:41:05.469Z,100640.17
2023-04-04T13:46:09.048Z,100638.18
2023-04-04T13:51:12.397Z,100637.90
2023-04-04T13:56:18.719Z,100635.17
2023-04-04T14:01:23.478Z,100633.61
2023-04-04T14:06:27.154Z,100635.44
2023-04-04T14:11:31.482Z,100633.02
2023-04-04T14:16:34.941Z,100631.91
2023-04-04T14:21:38.305Z,100633.54
2023-04-04T14:26:41.860Z,100627.70
2023-04-04T14:31:45.305Z,100628.51
2023-04-04T14:36:49.235Z,100628.77
2023-04-04T14:41:52.744Z,100627.77
2023-04-04T14:46:56.748Z,100622.77
2023-04-04T14:52:00.218Z,100634.04
2023-04-04T14:57:06.906Z,100633.18
2023-04-04T15:02:22.399Z,100624.02
2023-04-04T15:07:25.922Z,100619.10
2023-04-04T15:12:29.946Z,100617.83
2023-04-04T15:17:33.434Z,100618.98
2023-04-04T15:22:38.843Z,100620.92
2023-04-04T15:27:42.434Z,100622.83
2023-04-04T15:32:45.808Z,100619.97
2023-04-04T15:37:49.707Z,100627.14
2023-04-04T15:42:53.096Z,100622.36
2023-04-04T15:47:56.519Z,100624.29
2023-04-04T15:53:00.009Z,100620.15
2023-04-04T15:58:04.346Z,100624.21
2023-04-04T16:03:07.726Z,100619.55
2023-04-04T16:08:14.040Z,100620.90
2023-04-04T16:13:17.453Z,100622.05
2023-04-04T16:18:20.968Z,100620.59
2023-04-04T16:23:24.789Z,100621.38
2023-04-04T16:28:28.305Z,100615.36
2023-04-04T16:33:32.061Z,100611.30
2023-04-04T16:38:35.748Z,100609.58
2023-04-04T16:43:39.162Z,100609.56
2023-04-04T16:48:42.680Z,100620.55
2023-04-04T16:53:46.006Z,100622.28
2023-04-04T16:58:49.662Z,100621.85
2023-04-04T17:03:53.490Z,100620.92
2023-04-04T17:08:58.030Z,100621.88
2023-04-04T17:14:01.997Z,100623.89
2023-04-04T17:19:05.263Z,100616.98
2023-04-04T17:24:08.715Z,100613.75
2023-04-04T17:29:12.130Z,100610.00
2023-04-04T17:34:18.044Z,100609.63
2023-04-04T17:39:22.244Z,100602.02
2023-04-04T17:44:25.648Z,100606.23
2023-04-04T17:49:29.627Z,100606.63
2023-04-04T17:54:33.360Z,100603.36
2023-04-04T17:59:36.735Z,100602.10
2023-04-04T18:04:40.441Z,100598.11
2023-04-04T18:09:44.378Z,100604.98
2023-04-04T18:14:48.692Z,100608.34
2023-04-04T18:19:54.881Z,100605.81
2023-04-04T18:24:59.301Z,100606.52
2023-04-04T18:30:02.716Z,100606.04
2023-04-04T18:35:07.056Z,100609.96
2023-04-04T18:40:10.412Z,100609.55
2023-04-04T18:45:14.395Z,100607.79
2023-04-04T18:50:18.887Z,100607.05
2023-04-04T18:55:22.646Z,100608.73
2023-04-04T19:00:26.162Z,100607.67
2023-04-04T19:05:33.476Z,100608.10
2023-04-04T19:10:37.086Z,100607.96
2023-04-04T19:15:40.732Z,100605.59
2023-04-04T19:20:44.322Z,100607.15
2023-04-04T19:25:47.840Z,100611.33
2023-04-04T19:30:54.569Z,100609.26
2023-04-04T19:36:02.564Z,100609.29
2023-04-04T19:41:25.316Z,100614.17
2023-04-04T19:46:32.856Z,100612.00
2023-04-04T19:51:48.941Z,100610.16
2023-04-04T19:56:58.608Z,100611.48
2023-04-04T20:02:02.025Z,100611.80
2023-04-04T20:07:05.535Z,100610.24
2023-04-04T20:12:10.577Z,100600.95
2023-04-04T20:17:20.239Z,100598.56
2023-04-04T20:22:23.546Z,100596.79
2023-04-04T20:27:28.088Z,100597.02
2023-04-04T20:32:31.539Z,100600.27
2023-04-04T20:37:36.241Z,100600.98
2023-04-04T20:42:40.992Z,100598.96
2023-04-04T20:47:52.411Z,100598.42
2023-04-04T20:52:59.997Z,100597.56
2023-04-04T20:58:22.260Z,100597.02
2023-04-04T21:03:25.773Z,100596.61
2023-04-04T21:08:51.315Z,100591.65
2023-04-04T21:13:56.060Z,100581.20
2023-04-04T21:19:01.660Z,100572.82
2023-04-04T21:24:13.526Z,100571.52
2023-04-04T21:29:24.043Z,100575.30
2023-04-04T21:34:28.476Z,100572.90
2023-04-04T21:39:31.981Z,100576.23
2023-04-04T21:44:35.677Z,100574.27
2023-04-04T21:49:39.185Z,100570.23
2023-04-04T21:54:42.596Z,100565.66
2023-04-04T21:59:46.114Z,100562.16
2023-04-04T22:04:49.596Z,100558.12
2023-04-04T22:09:53.143Z,100558.10
2023-04-04T22:14:59.115Z,100556.29
2023-04-04T22:20:11.441Z,100555.27
2023-04-04T22:25:14.847Z,100552.49
2023-04-04T22:30:18.543Z,100555.51
2023-04-04T22:35:22.497Z,100552.69
2023-04-04T22:40:26.013Z,100553.00
2023-04-04T22:45:30.590Z,100551.61
2023-04-04T22:50:35.812Z,100555.48
2023-04-04T22:55:40.657Z,100555.56
2023-04-04T23:00:44.277Z,100550.61
2023-04-04T23:05:47.793Z,100544.14
2023-04-04T23:10:51.515Z,100541.87
2023-04-04T23:15:54.866Z,100538.50
2023-04-04T23:20:58.439Z,100535.86
2023-04-04T23:26:01.960Z,100536.42
2023-04-04T23:31:06.718Z,100527.61
2023-04-04T23:36:10.580Z,100530.19
2023-04-04T23:41:14.140Z,100526.95
2023-04-04T23:46:17.704Z,100524.63
2023-04-04T23:51:22.502Z,100517.28
2023-04-04T23:56:27.043Z,100515.34
